Station: Bedourie  

  Atmospheric Gas Attenuation - ITU Rec 676-11   ----------------- dB/100km -----------------
Date Time Temp RH % AH g/m3 Dew Point Wind Direction Speed kph Gust kph Barometer mB Rainfall Since 9am 24GHz 47GHz 76GHz 122GHz 134GHz 241GHz
08/05 09:00 13.4 47 5.46 2.4 17 1026 0 12.9 21.6 28.5 74.2 60.3 204.7
07/05 09:00 18.3 49 7.66 7.4 15 1023.3 0 17.4 23.6 34.5 90.3 82.1 281.9
06/05 09:00 16.8 60 8.58 9.1 11 1021.1 0 19.4 25.3 38.6 101.2 95.1 327.1
05/05 09:00 16.7 56 7.96 8 9 1021.8 0 18.1 24.4 36.3 95.0 87.4 300.3
29/04 09:00 22.4 52 10.33 12.1 0 1019.8 0 22.8 26.4 42.4 111.5 109.7 379.2
27/04 09:00 20.8 55 9.96 11.6 0 1018.5 0 22.1 26.2 41.8 109.8 107.2 370.1
25/04 09:00 22.2 49 9.62 11.2 0 1023.4 0 21.3 25.5 40.0 105.0 101.5 350.4
24/04 09:00 22.1 55 10.74 12.8 0 1022 0 23.7 27.2 44.3 116.4 115.6 399.5
22/04 09:00 22.9 61 12.47 15 0 1018.7 0 27.3 29.6 50.5 133.1 136.5 472.8
17/04 09:00 23.7 65 13.9 16.7 6 1015.7 0 30.3 31.5 55.7 147.0 154.0 533.9
15/04 09:00 21.4 45 8.44 9.2 7 1018.2 0 18.9 23.7 35.8 93.9 87.8 302.3
10/04 09:00 29.6 48 14.25 17.5 7 1014.4 0 30.6 30.0 53.0 139.8 147.0 510.3
09/04 09:00 28.1 65 17.78 21 0 1015.3 0 38.1 36.5 68.8 181.9 198.2 688.7
08/04 09:00 27.3 55 14.39 17.6 0 1015.3 0 31.0 31.0 55.1 145.6 153.3 532.2
07/04 09:00 28.8 52 14.78 18 0 1016 0 31.7 31.2 55.7 147.0 155.6 540.2
02/04 09:00 28.3 47 12.99 16.2 0 1018.7 0 28.0 28.6 49.2 129.6 133.9 464.2
30/03 09:00 22.1 41 8 8.5 6 1017.5 0 17.9 22.9 33.9 88.9 81.8 281.5
27/03 09:00 22.2 54 10.6 12.5 19 1018.8 0 23.4 26.8 43.5 114.4 113.3 391.8
26/03 09:00 29.8 47 14.1 17.4 4 1013.4 0 30.2 29.7 52.2 137.8 144.6 502.0
22/03 09:00 27.8 65 17.48 20.7 7 1012.1 0 37.5 36.0 67.6 178.6 194.3 674.9
21/03 09:00 27.3 67 17.53 20.6 6 1012.3 0 37.6 36.3 68.2 180.4 196.3 681.9
20/03 09:00 27.2 74 19.26 22.3 9 1011 0 41.3 39.4 76.0 201.2 221.8 770.8
19/03 09:00 24.9 86 19.69 22.4 9 1011.8 11 42.4 41.3 80.5 213.0 235.6 818.4
18/03 09:00 27.8 82 22.06 24.4 7 1010.6 5 47.2 44.4 88.7 234.8 263.2 914.8
17/03 09:00 31.4 58 18.97 22.3 11 1009.8 0 40.3 36.9 70.7 187.0 205.6 714.8
16/03 09:00 27.8 66 17.75 20.9 6 1012.6 0 38.0 36.5 68.8 181.9 198.2 688.6
12/03 09:00 30.3 62 19.11 22.2 0 1008.1 0 40.7 37.6 72.2 191.0 210.3 731.2
11/03 09:00 29.2 58 16.84 20.3 6 1007.8 0 36.0 34.1 63.4 167.6 181.3 630.0
10/03 09:00 28.2 54 14.85 18.2 4 1008.2 0 31.9 31.2 56.0 147.9 156.8 544.4
09/03 09:00 26.8 55 14 17.1 15 1006.8 0 30.3 30.3 53.5 141.2 148.2 514.3
06/03 09:00 28.8 71 20.17 23 7 1007.3 0 43.1 40.2 78.4 207.5 230.1 799.8
05/03 09:00 27.4 80 21.05 23.6 13 1008.2 0 45.1 42.6 84.1 222.6 248.2 862.6
04/03 09:00 27.4 83 21.84 24.2 7 1009.6 11 46.7 44.2 88.0 233.0 261.0 906.8
25/02 09:00 29 77 22.12 24.7 9 1005.8 0.4 47.2 43.7 87.2 231.0 259.1 900.7
24/02 09:00 28.5 74 20.69 23.4 9 1004.4 0.2 44.2 41.1 80.9 214.2 238.5 828.8
23/02 09:00 27.5 73 19.31 22.3 13 1002.4 0.4 41.4 39.0 75.4 199.7 220.4 765.8
22/02 09:00 29 71 20.4 23.2 4 1002.9 0 43.6 40.3 78.9 209.0 232.3 807.3
21/02 09:00 28 77 20.94 23.7 2 1005.5 0.7 44.8 41.9 82.7 219.0 244.1 848.3
13/02 09:00 25.2 91 21.18 23.6 0 1007.1 3 45.6 43.9 87.1 230.7 257.6 895.0
11/02 09:00 30.1 72 21.96 24.5 11 1010.2 0 46.7 43.0 85.5 226.4 253.6 881.6
09/02 09:00 31.4 69 22.57 25 0 1009.3 0 47.8 43.4 86.8 230.0 258.4 898.4
06/02 09:00 26.4 88 21.91 24.2 0 1014 0 47.0 45.0 89.8 237.8 266.4 925.6
05/02 09:00 33.7 49 18.11 21.5 7 1013.5 0 38.2 34.7 65.3 172.6 188.4 655.3
03/02 09:00 29.1 15 4.33 -0.1 9 1012 0 10.1 16.6 20.0 51.9 38.6 130.1
02/02 09:00 30.4 37 11.47 14.1 9 1010 1 24.8 25.4 42.0 110.6 111.5 386.2
27/01 09:00 32.9 42 14.88 18.3 7 1007.5 0 31.6 29.6 52.9 139.6 147.9 514.0
23/01 09:00 34.2 34 12.9 16.2 7 1008.2 0 27.5 26.3 44.9 118.5 122.2 424.4
22/01 09:00 35.9 26 10.78 13.7 9 1004.1 0 23.0 22.9 36.8 97.0 96.3 333.8
19/01 09:00 35.7 17 6.97 7.4 15 1001.1 0 15.3 18.1 25.4 66.3 58.7 201.6
16/01 09:00 33.9 30 11.2 14.3 9 1003.6 0 24.0 23.9 39.1 103.0 103.2 357.8
15/01 09:00 34.4 48 18.4 22 4 1004.7 0 38.8 34.5 65.4 173.0 189.4 658.8
14/01 09:00 35.3 19 7.63 8.7 7 1002.8 0 16.6 19.0 27.4 71.8 65.3 224.7
13/01 09:00 33.2 13 4.68 1 15 1004.5 0 10.7 16.1 19.8 51.5 39.6 134.0
12/01 09:00 32.9 12 4.25 0.1 13 1006.4 0 9.8 15.7 18.8 48.7 36.0 121.4
09/01 09:00 34.8 38 14.87 18.5 7 1007.8 0 31.5 29.0 51.6 136.3 144.3 501.7
08/01 09:00 34.4 35 13.42 17.1 6 1010 0 28.5 27.1 46.7 123.3 128.1 444.9
07/01 09:00 35.4 34 13.73 17.5 7 1010.4 0 29.1 27.2 47.3 124.7 130.1 452.1
06/01 09:00 33.3 40 14.47 18 9 1009.5 0 30.8 28.9 51.2 135.1 142.4 494.7
05/01 09:00 1013.1
02/01 09:00 28.7 59 16.67 19.9 4 1009.2 0 35.7 34.1 63.2 167.0 180.3 626.5
01/01 09:00 28.4 52 14.46 17.7 6 1007.3 0 31.1 30.5 54.3 143.3 151.2 524.9
31/12 09:00 1013.1
30/12 09:00 28.4 63 17.51 20.7 6 1007.9 0 37.5 35.6 66.9 177.0 192.6 669.2
29/12 09:00 29.9 58 17.5 20.9 7 1008.6 0 37.3 35.0 65.6 173.6 188.8 656.2
28/12 09:00 31.8 56 18.71 22 6 1008.4 0 39.7 36.3 69.1 182.9 200.7 697.8
27/12 09:00 32.3 41 14.07 17.5 9 1007.4 0 30.0 28.6 50.2 132.6 139.1 483.1
26/12 09:00 29.3 68 19.86 22.9 15 1007.9 0 42.4 39.4 76.5 202.5 224.1 778.9
25/12 09:00 28.4 38 10.56 12.8 9 1008.4 2 23.0 24.6 39.7 104.5 103.5 358.1
24/12 09:00 25.8 89 21.43 23.8 9 1009.6 0 46.1 44.2 87.9 232.6 260.0 903.3
23/12 09:00 28.4 53 14.73 17.9 7 1008.7 11 31.7 31.0 55.4 146.3 154.9 537.7
22/12 09:00 24.7 95 21.5 23.8 7 1008.3 15 46.4 44.9 89.4 236.8 264.9 919.9
18/12 09:00 30.2 57 17.48 20.8 13 1011.7 0 37.3 35.0 65.5 173.1 188.2 654.1
17/12 09:00 30.9 53 16.87 20.4 4 1011.9 2 35.9 33.7 62.4 164.9 178.3 619.6
16/12 09:00 35.7 37 15.18 18.9 17 1009.3 0 32.0 29.2 52.2 138.0 146.6 509.6
12/12 09:00 38.2 23 10.73 13.5 13 1005.7 0 22.8 22.3 35.7 94.1 93.3 323.4
11/12 09:00 34.9 32 12.59 16 9 1008.9 0 26.8 25.7 43.5 114.7 117.7 408.7
10/12 09:00 37.1 29 12.79 16.1 7 1013.3 0 27.0 25.5 43.2 113.9 117.2 406.9
09/12 09:00 35.9 14 5.8 4.6 9 1009 0 12.9 17.0 22.3 58.1 48.3 165.0
08/12 09:00 24.4 78 17.36 20.4 9 1010 1 37.6 37.1 69.9 185.0 201.1 698.3
05/12 09:00 36.3 16 6.77 6.4 30 1017.4 0 14.8 18.3 25.1 65.6 57.2 196.5
04/12 09:00 34.3 15 5.72 3.8 7 1012.6 0 12.8 17.3 22.6 58.9 48.6 166.1
02/12 09:00 25.9 25 6.05 4.8 11 1016.4 0 13.7 19.4 26.1 67.9 57.3 195.6
01/12 09:00 26.4 22 5.48 3.1 19 1016.2 0 12.5 18.6 24.2 62.9 51.2 174.2
28/11 09:00 27.3 63 16.49 19.8 11 1008.6 0 35.5 34.3 63.5 167.9 181.1 628.9
27/11 09:00 26.8 79 20.11 22.8 0 1010.8 1 43.1 41.2 80.4 212.8 236.0 820.0
26/11 09:00 36.2 27 11.37 14.6 15 1005.8 0 24.2 23.6 38.6 101.8 102.3 354.9
25/11 09:00 38.8 31 14.9 18.7 19 1002.9 0 31.3 27.6 49.0 129.5 137.1 476.9
21/11 09:00 34.1 17 6.42 5.9 6 1010 0 14.2 18.1 24.5 64.0 55.1 188.8
20/11 09:00 33.8 16 5.94 4.6 6 1009.6 0 13.2 17.5 23.3 60.6 50.8 173.7
17/11 09:00 27.9 24 6.49 5.4 7 1013.3 0 14.6 19.4 26.7 69.7 60.2 206.1
14/11 09:00 31.6 24 7.93 8.8 4 1007.4 0 17.4 20.3 29.7 77.8 71.5 246.3
13/11 09:00 31.7 41 13.63 17.1 6 1009.8 0 29.1 28.2 49.1 129.5 135.0 468.8
12/11 09:00 27.2 24 6.25 5 11 1016.8 0 14.1 19.4 26.3 68.6 58.4 199.8
10/11 09:00 24.9 18 4.12 -0.9 9 1016.6 0 9.8 17.2 20.6 53.1 38.7 130.0
06/11 09:00 27.2 24 6.25 5 4 1012.3 0 14.1 19.3 26.2 68.2 58.2 199.0
05/11 09:00 23.4 28 5.89 4.1 6 1017.9 0 13.5 19.7 26.4 68.7 57.4 195.9
04/11 09:00 19.4 61 10.18 11.8 0 1017.1 0 22.7 26.9 43.3 113.9 111.8 386.2
03/11 09:00 34.3 19 7.25 7.3 4 1009.5 0 15.9 19.0 26.9 70.2 62.8 215.8
24/10 09:00 28.2 20 5.5 3.6 13 1014.6 0 12.5 18.2 23.7 61.6 50.2 171.0
22/10 09:00 35.4 24 9.69 11.8 13 1008.6 0 20.8 21.7 33.8 88.7 85.9 297.2

Last Refresh: 08-May-2026 12:07:39

Bureau of Meteorology